LPHR/HOR METAR and TAF weather

Enter ICAO airport designator
Station Type Date Time Source
LPHR METAR 2019/10/22 16:00 UTC NOAA

LPHR 221600Z 19011KT 9999 FEW016 SCT035 22/17 Q1020


Station Type Date Time Source
LPHR Decoded METAR 2019/10/22 16:00 UTC NOAA

Horta / Castelo Branco Acores , Portugal (LPHR) 38-31N 028-43W 41M
Oct 22, 2019 - 12:00 PM EDT / 2019.10.22 1600 UTC
Wind: from the S (190 degrees) at 13 MPH (11 KT):0
Visibility: greater than 7 mile(s):0
Sky conditions: partly cloudy
Temperature: 71 F (22 C)
Dew Point: 62 F (17 C)
Relative Humidity: 73%
Pressure (altimeter): 30.12 in. Hg (1020 hPa)
ob: LPHR 221600Z 19011KT 9999 FEW016 SCT035 22/17 Q1020
cycle: 16

Station Type Date Time Source
LPHR TAF 2018/09/06 09:00 UTC NOAA

TAF LPHR 060800Z 0609/0618 12010KT 9999 SCT018 SCT040 PROB30
TEMPO 0609/0618 5000 SHRA BKN015 FEW018CB
BECMG 0610/0612 18010KT

Example: see airport list